Archival Weather

Yakutsk

Yakutsk, Russia (UEEE)

Report from: Sunday, February 5, 2023 9:30 AM JST
Current time: Sunday, July 14, 2024 10:55 AM JST

Current weather – Weather history – Daily summaries
Weather forecast

Present weatherFog
Temperature-43.0°C (-45.4°F)
Dew point-47.0°C (-52.6°F)
Winds 1.9 kts (1 m/s, 2.2 mph) South-Southeast (160°)
Visibility984.3 ft. (300 m)
Altimeter30.09 in.Hg (1019 mB)
Precip. events QF 11:35 AM
Relative humidity64 %
Density altitude-8,069 ft. (-2,459 m)
Remarks No significant changes expected in the next two hours
Flight conditions Low Instrument Meteorological Conditions
Raw dataUEEE 050030Z 16001MPS 0300 0250SW R23L/0350N FG NSC M43/M47 Q1019 R23L/490150 NOSIG RMK QFE755
An error has occurred. This application may no longer respond until reloaded. Reload 🗙